Time;durP1;ratioP1;P1;durP2;ratioP2;P2;SDS_P1;SDS_P2;PMS_P1;PMS_P2;Temp;Humidity;BMP_temperature;BMP_pressure;BME280_temperature;BME280_humidity;BME280_pressure;Samples;Min_cycle;Max_cycle;Signal;HPM_P1;HPM_P2
2022/01/17 00:01:25;;;;;;;6.70;4.88;;;;;;;18.50;51.01;98118.59;10412498;28;20480;-22
2022/01/17 00:06:26;;;;;;;7.75;5.18;;;;;;;18.51;51.03;98110.16;10420394;28;20040;-23
2022/01/17 00:11:26;;;;;;;6.18;4.55;;;;;;;18.51;51.21;98110.16;10432283;28;20108;-23
2022/01/17 00:16:39;;;;;;;5.47;4.50;;;;;;;18.49;51.21;98119.41;10434353;28;20034;-23
2022/01/17 00:21:41;;;;;;;7.35;4.72;;;;;;;18.40;51.54;98101.47;10411879;28;20434;-22
2022/01/17 00:26:41;;;;;;;7.05;4.25;;;;;;;18.50;51.33;98123.66;10411376;28;20623;-23
2022/01/17 00:31:42;;;;;;;7.90;5.05;;;;;;;18.51;51.38;98135.50;10411758;28;20120;-23
2022/01/17 00:36:42;;;;;;;11.48;5.43;;;;;;;18.51;51.46;98138.06;10445119;28;20041;-23
2022/01/17 00:41:43;;;;;;;7.63;4.85;;;;;;;18.47;51.60;98143.84;10428657;28;20526;-23
2022/01/17 00:46:43;;;;;;;7.18;4.57;;;;;;;18.48;51.41;98155.72;10410798;28;20041;-22
2022/01/17 00:51:44;;;;;;;6.63;4.70;;;;;;;18.48;51.62;98143.91;10440117;28;20041;-23
2022/01/17 00:56:45;;;;;;;7.10;4.50;;;;;;;18.48;51.64;98132.88;10428005;28;20438;-23
2022/01/17 01:01:45;;;;;;;6.65;4.63;;;;;;;18.50;51.61;98133.81;10411035;28;20178;-23
2022/01/17 01:06:45;;;;;;;6.50;4.30;;;;;;;18.49;51.66;98139.72;10432614;28;20461;-23
2022/01/17 01:11:46;;;;;;;7.53;5.47;;;;;;;18.51;51.52;98145.66;10449627;28;20501;-23
2022/01/17 01:16:46;;;;;;;7.10;3.87;;;;;;;18.49;51.60;98142.25;10428780;28;20311;-23
2022/01/17 01:32:13;;;;;;;7.17;4.27;;;;;;;18.47;51.76;98133.72;10450184;28;20043;-22
2022/01/17 01:37:13;;;;;;;14.30;3.95;;;;;;;18.42;51.70;98125.16;10409051;28;20033;-23
2022/01/17 01:42:18;;;;;;;5.27;4.10;;;;;;;18.44;51.87;98137.06;10433877;28;20038;-23
2022/01/17 01:47:26;;;;;;;5.78;4.25;;;;;;;18.47;51.77;98132.06;10448079;28;20057;-23
2022/01/17 01:52:26;;;;;;;7.15;4.10;;;;;;;18.49;51.64;98134.63;10431350;28;20043;-23
2022/01/17 01:57:26;;;;;;;5.47;4.23;;;;;;;18.48;51.79;98130.34;10409166;28;20125;-23
2022/01/17 02:02:27;;;;;;;6.00;4.40;;;;;;;18.51;51.42;98120.31;10408988;28;20367;-23
2022/01/17 02:07:27;;;;;;;6.33;3.90;;;;;;;18.46;51.58;98121.88;10408264;28;20041;-23
2022/01/17 02:12:29;;;;;;;6.37;3.80;;;;;;;18.46;51.57;98122.72;10436719;28;20098;-22
2022/01/17 02:17:32;;;;;;;6.35;4.40;;;;;;;18.48;51.72;98110.06;10428805;28;20729;-22
2022/01/17 02:22:34;;;;;;;5.65;3.95;;;;;;;18.46;51.70;98106.66;10450361;28;20040;-23
2022/01/17 02:27:35;;;;;;;8.48;3.97;;;;;;;18.48;51.54;98105.00;10447553;28;20036;-23
2022/01/17 02:32:36;;;;;;;5.25;3.85;;;;;;;18.46;51.75;98092.31;10441359;28;20033;-22
2022/01/17 02:37:36;;;;;;;4.20;3.67;;;;;;;18.48;51.68;98094.84;10407944;28;20026;-23
2022/01/17 02:42:37;;;;;;;4.70;3.80;;;;;;;18.47;51.64;98098.22;10437455;28;20029;-23
2022/01/17 02:47:39;;;;;;;4.57;3.42;;;;;;;18.46;51.62;98086.34;10437532;28;20037;-22
2022/01/17 02:52:39;;;;;;;6.65;3.47;;;;;;;18.46;51.60;98099.03;10408026;28;20034;-22
2022/01/17 02:57:39;;;;;;;4.17;3.50;;;;;;;18.44;51.58;98088.00;10436765;28;20426;-23
2022/01/17 03:02:41;;;;;;;5.43;3.47;;;;;;;18.47;51.62;98085.53;10449141;28;20283;-23
2022/01/17 03:07:43;;;;;;;4.50;3.42;;;;;;;18.48;51.42;98094.84;10455661;28;20356;-23
2022/01/17 03:12:43;;;;;;;4.53;3.55;;;;;;;18.44;51.50;98093.09;10424295;28;20044;-23
2022/01/17 03:17:43;;;;;;;4.00;3.23;;;;;;;18.44;51.60;98099.03;10415017;28;20365;-23
2022/01/17 03:22:44;;;;;;;7.27;4.37;;;;;;;18.48;51.57;98120.22;10415367;28;20295;-23
2022/01/17 03:27:44;;;;;;;5.80;3.20;;;;;;;18.45;51.65;98130.28;10413588;28;20132;-23
2022/01/17 03:32:45;;;;;;;6.77;3.60;;;;;;;18.45;52.18;98131.16;10418938;28;20116;-23
2022/01/17 03:37:45;;;;;;;5.05;3.40;;;;;;;18.43;51.71;98132.78;10454356;28;20029;-22
2022/01/17 03:42:46;;;;;;;5.47;3.03;;;;;;;18.45;51.66;98138.78;10453904;28;20052;-23
2022/01/17 03:47:50;;;;;;;4.60;3.25;;;;;;;18.44;51.79;98146.34;10454278;28;20033;-23
2022/01/17 03:52:51;;;;;;;3.63;3.10;;;;;;;18.43;51.82;98152.25;10453959;28;20037;-23
2022/01/17 03:57:51;;;;;;;5.53;3.70;;;;;;;18.45;51.89;98131.16;10420629;28;20045;-23
2022/01/17 04:02:53;;;;;;;5.03;3.60;;;;;;;18.37;51.81;98112.38;10414449;28;22083;-23
2022/01/17 04:07:53;;;;;;;4.70;3.13;;;;;;;18.44;51.92;98129.47;10453126;28;20434;-23
2022/01/17 04:13:00;;;;;;;5.20;3.37;;;;;;;18.36;51.74;98110.69;10419879;28;20033;-23
2022/01/17 04:18:02;;;;;;;3.63;3.05;;;;;;;18.19;51.78;98058.72;10411315;28;20120;-23
2022/01/17 04:23:06;;;;;;;4.05;2.63;;;;;;;18.46;51.89;98099.03;10412350;28;20041;-23
2022/01/17 04:28:08;;;;;;;6.78;3.15;;;;;;;18.44;51.81;98095.63;10444477;28;20033;-23
2022/01/17 04:33:10;;;;;;;5.47;3.40;;;;;;;18.45;51.74;98097.31;10451827;28;20041;-23
2022/01/17 04:38:15;;;;;;;4.07;3.05;;;;;;;18.44;51.81;98099.03;10451953;28;20491;-23
2022/01/17 04:43:21;;;;;;;8.10;3.10;;;;;;;18.44;51.82;98113.38;10415857;28;20041;-23
2022/01/17 04:48:21;;;;;;;4.45;2.85;;;;;;;18.45;51.90;98115.09;10410725;28;20033;-23
2022/01/17 04:53:22;;;;;;;4.63;3.20;;;;;;;18.48;51.65;98125.28;10413591;28;20029;-23
2022/01/17 04:58:23;;;;;;;4.00;3.08;;;;;;;18.51;51.45;98126.22;10401630;28;20487;-22
2022/01/17 05:03:25;;;;;;;3.30;2.47;;;;;;;18.55;51.49;98152.50;10384470;28;20476;-22
2022/01/17 05:08:25;;;;;;;3.13;2.65;;;;;;;18.53;51.38;98160.09;10445430;28;20032;-23
2022/01/17 05:13:32;;;;;;;4.37;3.10;;;;;;;18.48;51.20;98160.78;10412920;28;20056;-23
2022/01/17 05:23:35;;;;;;;4.30;2.60;;;;;;;18.53;51.00;98154.16;10451105;28;20078;-23
2022/01/17 05:28:36;;;;;;;3.58;2.42;;;;;;;18.53;51.03;98152.50;10447926;28;20457;-23
2022/01/17 05:33:36;;;;;;;3.60;2.40;;;;;;;18.57;51.03;98150.88;10437846;28;20033;-23
2022/01/17 05:38:36;;;;;;;6.03;2.90;;;;;;;18.66;50.89;98172.22;10408160;28;20030;-23
2022/01/17 05:43:37;;;;;;;4.53;2.57;;;;;;;18.65;50.79;98179.78;10408015;28;20030;-23
2022/01/17 05:48:38;;;;;;;6.90;3.00;;;;;;;18.59;50.25;98207.56;10408098;28;20033;-23
2022/01/17 05:53:38;;;;;;;5.05;3.75;;;;;;;18.49;47.75;98183.66;10446612;28;20701;-23
2022/01/17 05:58:38;;;;;;;3.83;3.40;;;;;;;18.55;47.83;98193.09;10409990;28;20029;-23
2022/01/17 06:03:39;;;;;;;4.63;3.43;;;;;;;18.53;48.23;98194.72;10408724;28;20357;-23
2022/01/17 06:08:39;;;;;;;4.50;3.20;;;;;;;18.54;48.84;98187.16;10449350;28;20588;-23
2022/01/17 06:13:39;;;;;;;12.67;4.20;;;;;;;18.51;47.80;98191.31;10447354;28;20115;-23
2022/01/17 06:18:40;;;;;;;7.47;3.13;;;;;;;18.64;48.58;98183.16;10411477;28;20034;-23
2022/01/17 06:23:40;;;;;;;10.20;3.38;;;;;;;18.63;48.10;98212.75;10408374;28;20041;-23
2022/01/17 06:28:41;;;;;;;6.28;3.42;;;;;;;18.64;49.25;98213.59;10445356;28;20060;-23
2022/01/17 06:33:41;;;;;;;18.70;4.17;;;;;;;18.61;49.80;98218.59;10435941;28;20095;-23
2022/01/17 06:38:41;;;;;;;7.47;4.33;;;;;;;18.34;44.90;98215.41;10412978;28;20113;-23
2022/01/17 06:43:42;;;;;;;8.83;3.43;;;;;;;18.36;48.60;98216.31;10453882;28;20583;-22
2022/01/17 06:48:43;;;;;;;6.85;3.72;;;;;;;18.49;48.75;98213.25;10454357;28;20041;-23
2022/01/17 06:53:44;;;;;;;7.68;3.60;;;;;;;18.51;48.46;98214.13;10456227;28;20097;-23
2022/01/17 06:58:44;;;;;;;6.55;3.55;;;;;;;18.54;48.25;98217.59;10454785;28;20384;-23
2022/01/17 07:03:45;;;;;;;7.18;3.45;;;;;;;18.49;48.76;98234.38;10444588;28;20071;-24
2022/01/17 07:08:45;;;;;;;5.73;3.27;;;;;;;18.54;49.04;98237.03;10414818;28;20032;-23
2022/01/17 07:13:46;;;;;;;8.45;3.38;;;;;;;18.53;49.30;98242.94;10453084;28;20033;-23
2022/01/17 07:18:46;;;;;;;10.43;3.50;;;;;;;18.51;49.12;98265.72;10417303;28;20358;-23
2022/01/17 07:23:46;;;;;;;4.13;2.47;;;;;;;18.50;49.17;98296.13;10455379;28;20029;-23
2022/01/17 07:28:47;;;;;;;4.87;3.27;;;;;;;18.53;49.13;98303.81;10413963;28;20043;-23
2022/01/17 07:33:47;;;;;;;6.10;3.10;;;;;;;18.54;49.76;98346.09;10416143;28;20037;-23
2022/01/17 07:38:48;;;;;;;5.18;2.83;;;;;;;18.51;49.29;98301.22;10454037;28;20284;-23
2022/01/17 07:43:50;;;;;;;5.13;2.67;;;;;;;18.50;49.25;98275.84;10413620;28;20040;-23
2022/01/17 07:49:10;;;;;;;4.72;3.13;;;;;;;18.47;49.29;98271.53;10423171;28;20291;-23
2022/01/17 07:54:14;;;;;;;3.45;2.58;;;;;;;18.51;49.22;98288.53;10451314;28;20029;-23
2022/01/17 07:59:14;;;;;;;3.88;2.88;;;;;;;18.52;49.25;98314.78;10412393;28;20029;-23
2022/01/17 08:04:15;;;;;;;4.23;2.60;;;;;;;18.51;49.18;98324.03;10419441;28;20030;-23
2022/01/17 08:09:30;;;;;;;4.45;2.35;;;;;;;18.51;49.47;98313.06;10413225;28;20042;-23
2022/01/17 08:14:30;;;;;;;5.15;2.85;;;;;;;18.51;49.20;98326.59;10450357;28;20120;-23
2022/01/17 08:19:32;;;;;;;5.20;3.20;;;;;;;18.51;49.51;98338.44;10423917;28;20036;-23
2022/01/17 08:24:34;;;;;;;4.07;2.20;;;;;;;18.50;49.28;98342.63;10447137;28;20778;-23
2022/01/17 08:29:34;;;;;;;2.95;2.55;;;;;;;18.49;49.35;98335.00;10411006;28;20041;-23
2022/01/17 08:34:35;;;;;;;4.32;2.83;;;;;;;18.50;49.35;98346.84;10430029;28;20041;-23
2022/01/17 08:39:36;;;;;;;3.28;2.55;;;;;;;18.50;49.45;98341.78;10446394;28;20031;-23
2022/01/17 08:44:37;;;;;;;3.88;2.13;;;;;;;18.50;49.44;98317.25;10411604;28;20319;-22
2022/01/17 08:49:38;;;;;;;2.95;2.25;;;;;;;18.49;49.85;98315.53;10409867;28;20059;-23
2022/01/17 08:54:38;;;;;;;2.97;2.43;;;;;;;18.50;49.36;98326.56;10414721;28;20027;-23
2022/01/17 08:59:38;;;;;;;3.07;2.37;;;;;;;18.51;49.44;98308.00;10451270;28;20087;-23
2022/01/17 09:04:41;;;;;;;3.13;2.83;;;;;;;18.51;49.35;98302.91;10432887;28;20039;-23
2022/01/17 09:09:43;;;;;;;3.17;2.60;;;;;;;18.43;49.38;98299.31;10414319;28;20037;-23
2022/01/17 09:14:43;;;;;;;3.15;2.30;;;;;;;18.52;49.49;98319.84;10446558;28;20483;-24
2022/01/17 09:19:46;;;;;;;4.27;2.47;;;;;;;18.50;49.44;98336.72;10419445;28;20056;-23
2022/01/17 09:24:46;;;;;;;2.75;2.20;;;;;;;18.49;49.54;98325.69;10442727;28;20137;-23
2022/01/17 09:29:46;;;;;;;3.25;2.33;;;;;;;18.49;49.53;98345.13;10408734;28;20172;-23
2022/01/17 09:34:48;;;;;;;2.72;2.20;;;;;;;18.50;49.50;98377.28;10421285;28;20049;-23
2022/01/17 09:39:48;;;;;;;2.77;2.00;;;;;;;18.50;49.45;98392.50;10441522;28;20056;-23
2022/01/17 09:44:49;;;;;;;2.00;1.80;;;;;;;18.51;49.48;98399.28;10408540;28;20045;-21
2022/01/17 09:54:51;;;;;;;3.23;2.50;;;;;;;18.49;49.41;98390.81;10414901;28;20087;-20
2022/01/17 09:59:51;;;;;;;2.75;2.35;;;;;;;18.49;49.31;98409.41;10449519;28;20048;-21
2022/01/17 10:04:52;;;;;;;3.47;2.27;;;;;;;18.50;49.48;98422.94;10440880;28;20029;-21
2022/01/17 10:09:55;;;;;;;4.10;2.70;;;;;;;18.50;49.53;98393.34;10447569;28;20326;-21
2022/01/17 10:15:00;;;;;;;3.40;2.35;;;;;;;18.48;49.26;98383.97;10450776;28;20472;-21
2022/01/17 10:20:03;;;;;;;4.10;2.20;;;;;;;18.47;49.62;98382.25;10436699;28;20112;-20
2022/01/17 10:35:37;;;;;;;2.40;2.13;;;;;;;18.47;49.53;98362.84;10442369;28;20561;-21
2022/01/17 10:41:07;;;;;;;2.85;2.22;;;;;;;18.48;49.57;98356.94;10442132;28;20037;-21
2022/01/17 10:46:12;;;;;;;2.55;1.95;;;;;;;18.50;49.52;98369.69;10413470;28;20057;-20
2022/01/17 10:51:14;;;;;;;2.03;1.80;;;;;;;18.49;49.46;98378.13;10444083;28;20099;-21
2022/01/17 10:56:14;;;;;;;2.45;2.22;;;;;;;18.50;49.53;98387.44;10436410;28;20515;-20
2022/01/17 11:01:16;;;;;;;2.50;2.30;;;;;;;18.48;49.79;98384.84;10415210;28;20035;-20
2022/01/17 11:06:21;;;;;;;2.50;2.08;;;;;;;18.48;49.41;98378.91;10439491;28;20344;-21
2022/01/17 11:11:22;;;;;;;8.70;2.55;;;;;;;18.54;49.35;98369.81;10435297;28;20045;-21
2022/01/17 11:16:23;;;;;;;3.92;2.40;;;;;;;18.56;49.13;98367.28;10414440;28;20057;-20
2022/01/17 11:21:24;;;;;;;6.10;2.75;;;;;;;18.54;49.18;98366.38;10443401;28;20120;-20
2022/01/17 11:26:24;;;;;;;3.95;2.33;;;;;;;18.57;48.46;98380.00;10452370;28;20124;-20
2022/01/17 11:31:26;;;;;;;2.70;2.00;;;;;;;18.54;49.54;98385.03;10455788;28;20044;-20
2022/01/17 11:36:27;;;;;;;4.70;3.08;;;;;;;18.53;49.41;98375.69;10417122;28;20037;-20
2022/01/17 11:41:37;;;;;;;5.25;3.83;;;;;;;18.58;49.42;98370.75;10432522;28;20047;-20
2022/01/17 11:46:53;;;;;;;6.00;3.70;;;;;;;18.60;49.14;98369.09;10454514;28;20438;-20
2022/01/17 11:51:53;;;;;;;5.37;4.30;;;;;;;18.56;49.18;98344.44;10424850;28;20415;-21
2022/01/17 11:57:02;;;;;;;8.30;4.23;;;;;;;18.48;49.49;98303.69;10435652;28;20100;-20
2022/01/17 12:02:30;;;;;;;8.30;4.70;;;;;;;18.58;49.66;98342.84;10453530;28;20282;-20
2022/01/17 12:07:40;;;;;;;6.47;4.30;;;;;;;18.58;49.94;98375.81;10442006;28;20570;-20
2022/01/17 12:12:41;;;;;;;5.90;4.10;;;;;;;18.51;50.05;98354.47;10421871;28;20217;-20
2022/01/17 12:17:43;;;;;;;4.90;4.20;;;;;;;18.59;49.98;98357.22;10418417;28;20127;-20
2022/01/17 12:22:47;;;;;;;6.68;3.72;;;;;;;18.61;49.98;98363.19;10452517;28;20049;-20
2022/01/17 12:27:49;;;;;;;7.47;3.92;;;;;;;18.63;50.16;98333.66;10450447;28;20033;-20
2022/01/17 12:32:51;;;;;;;7.30;3.80;;;;;;;18.64;50.36;98360.72;10450248;28;20035;-20
2022/01/17 12:38:07;;;;;;;5.82;4.10;;;;;;;18.61;50.46;98320.94;10451821;28;20491;-20
2022/01/17 12:43:12;;;;;;;6.13;4.00;;;;;;;18.61;50.50;98309.91;10450777;28;20037;-21
2022/01/17 12:48:15;;;;;;;6.18;3.88;;;;;;;18.59;50.37;98324.25;10450995;28;20106;-20
2022/01/17 12:53:19;;;;;;;8.95;3.95;;;;;;;18.61;50.60;98340.38;10450795;28;20044;-20
2022/01/17 12:58:23;;;;;;;5.70;3.67;;;;;;;18.58;50.82;98335.22;10449899;28;20037;-20
2022/01/17 13:03:25;;;;;;;13.45;3.63;;;;;;;18.60;50.70;98338.66;10443679;28;20068;-21
2022/01/17 13:08:26;;;;;;;6.78;3.40;;;;;;;18.60;50.88;98329.34;10409502;28;20378;-20
2022/01/17 13:13:27;;;;;;;6.05;3.28;;;;;;;18.54;51.10;98341.91;10410489;28;20468;-21
2022/01/17 13:18:30;;;;;;;6.85;3.63;;;;;;;18.58;51.21;98312.41;10417286;28;20033;-21
2022/01/17 13:23:47;;;;;;;4.45;3.42;;;;;;;18.51;49.53;98334.19;10450835;28;20094;-20
2022/01/17 13:28:53;;;;;;;4.60;3.50;;;;;;;18.55;51.13;98324.97;10448742;28;20040;-21
2022/01/17 13:33:55;;;;;;;;;;;;;;;18.56;51.25;98309.81;10440269;28;20033;-21
2022/01/17 13:38:59;;;;;;;5.47;3.60;;;;;;;18.55;51.25;98308.09;10450578;28;19913;-21
2022/01/17 13:44:00;;;;;;;5.78;3.38;;;;;;;18.57;51.09;98313.22;10449056;28;20193;-21
2022/01/17 13:49:00;;;;;;;7.88;3.50;;;;;;;18.55;51.29;98284.41;10447776;28;20033;-23
2022/01/17 13:54:01;;;;;;;6.70;3.70;;;;;;;18.55;51.07;98282.72;10449389;28;20119;-23
2022/01/17 13:59:04;;;;;;;5.57;3.58;;;;;;;18.56;51.02;98281.03;10412160;28;20044;-23
2022/01/17 14:04:29;;;;;;;11.15;3.95;;;;;;;18.57;51.06;98277.72;10412074;28;20450;-25
2022/01/17 14:09:34;;;;;;;4.50;3.10;;;;;;;18.49;51.04;98279.19;10413928;28;20033;-23
2022/01/17 14:14:34;;;;;;;3.40;2.88;;;;;;;18.57;51.04;98288.69;10450610;28;20112;-23
2022/01/17 14:19:35;;;;;;;4.30;3.30;;;;;;;18.54;51.02;98296.25;10420946;28;20033;-22
2022/01/17 14:24:40;;;;;;;6.35;3.33;;;;;;;18.56;51.07;98296.25;10446305;28;20025;-23
2022/01/17 14:29:44;;;;;;;5.22;2.97;;;;;;;18.58;50.90;98322.53;10410852;28;20038;-23
2022/01/17 14:34:48;;;;;;;4.47;3.35;;;;;;;18.55;51.10;98336.00;10412123;28;20037;-23
2022/01/17 14:39:56;;;;;;;4.97;3.17;;;;;;;18.56;51.12;98347.00;10411953;28;20040;-23
2022/01/17 14:44:58;;;;;;;4.38;2.83;;;;;;;18.53;51.11;98339.31;10410772;28;20037;-23
2022/01/17 14:50:00;;;;;;;3.97;3.25;;;;;;;18.56;51.05;98349.53;10429157;28;20072;-23
2022/01/17 15:00:40;;;;;;;8.07;3.58;;;;;;;18.59;50.96;98353.00;10413069;28;20458;-23
2022/01/17 15:05:41;;;;;;;6.90;3.88;;;;;;;18.56;50.58;98358.00;10414701;28;20108;-22
2022/01/17 15:10:42;;;;;;;6.35;3.42;;;;;;;18.55;50.71;98360.50;10426466;28;20124;-23
2022/01/17 15:15:44;;;;;;;4.18;3.15;;;;;;;18.56;50.60;98357.13;10442758;28;20045;-23
2022/01/17 15:20:46;;;;;;;5.82;3.38;;;;;;;18.56;50.80;98364.75;10413928;28;20642;-23
2022/01/17 15:25:46;;;;;;;5.63;3.15;;;;;;;18.61;50.58;98350.50;10427657;28;20039;-23
2022/01/17 15:30:54;;;;;;;6.68;2.85;;;;;;;18.59;50.70;98358.06;10454293;28;20032;-23
2022/01/17 15:35:55;;;;;;;5.20;3.10;;;;;;;18.62;50.67;98358.16;10442972;28;20504;-23
2022/01/17 15:40:55;;;;;;;5.13;2.80;;;;;;;18.60;50.76;98354.72;10453690;28;20111;-23
2022/01/17 15:45:56;;;;;;;7.95;2.65;;;;;;;18.58;50.83;98371.59;10454896;28;20043;-23
2022/01/17 15:50:56;;;;;;;8.38;3.20;;;;;;;18.57;50.86;98366.50;10429364;28;20037;-23
2022/01/17 15:55:56;;;;;;;8.00;3.43;;;;;;;18.54;50.92;98367.25;10412932;28;20506;-23
2022/01/17 16:00:57;;;;;;;5.47;3.05;;;;;;;18.54;51.00;98361.31;10412813;28;20345;-23
2022/01/17 16:05:57;;;;;;;4.07;2.95;;;;;;;18.54;51.11;98364.72;10416824;28;20029;-23
2022/01/17 16:10:58;;;;;;;16.60;3.13;;;;;;;18.50;50.73;98372.22;10412298;28;20034;-23
2022/01/17 16:15:58;;;;;;;6.07;3.57;;;;;;;18.56;49.84;98379.97;10412436;28;20569;-23
2022/01/17 16:20:59;;;;;;;10.90;3.38;;;;;;;18.63;50.86;98387.78;10442163;28;20021;-23
2022/01/17 16:25:59;;;;;;;4.67;2.67;;;;;;;18.60;50.71;98394.47;10435940;28;20051;-23
2022/01/17 16:31:01;;;;;;;6.00;3.00;;;;;;;18.58;50.75;98396.09;10411434;28;20367;-23
2022/01/17 16:36:02;;;;;;;4.35;3.10;;;;;;;18.57;50.55;98399.47;10434208;28;20447;-23
2022/01/17 16:41:03;;;;;;;4.47;2.92;;;;;;;18.58;50.45;98403.72;10434354;28;20025;-23
2022/01/17 16:46:04;;;;;;;15.13;4.47;;;;;;;18.54;47.52;98400.25;10411247;28;20079;-23
2022/01/17 16:51:06;;;;;;;8.80;5.18;;;;;;;18.41;48.44;98407.47;10427813;28;20318;-23
2022/01/17 16:56:07;;;;;;;6.32;3.45;;;;;;;18.56;50.24;98406.19;10433767;28;20040;-23
2022/01/17 17:01:09;;;;;;;5.47;3.95;;;;;;;18.55;50.03;98381.66;10410395;28;20033;-23
2022/01/17 17:06:10;;;;;;;6.75;3.80;;;;;;;18.63;49.94;98394.53;10410376;28;20068;-23
2022/01/17 17:11:11;;;;;;;5.32;3.90;;;;;;;18.64;50.25;98393.72;10411723;28;20041;-23
2022/01/17 17:16:11;;;;;;;5.07;3.73;;;;;;;18.68;50.45;98398.91;10409672;28;20041;-23
2022/01/17 17:21:11;;;;;;;6.40;3.90;;;;;;;18.78;50.43;98405.06;10440943;28;20291;-23
2022/01/17 17:26:14;;;;;;;8.87;4.00;;;;;;;18.82;50.43;98414.50;10431294;28;20039;-22
2022/01/17 17:31:14;;;;;;;5.32;3.60;;;;;;;18.89;50.49;98412.16;10408636;28;20113;-23
2022/01/17 17:36:15;;;;;;;6.03;3.30;;;;;;;18.93;50.06;98420.69;10409453;28;20116;-22
2022/01/17 17:41:16;;;;;;;7.07;3.42;;;;;;;18.96;49.98;98441.06;10408977;28;20798;-22
2022/01/17 17:46:16;;;;;;;8.10;4.40;;;;;;;19.02;49.87;98441.25;10408844;28;20045;-23
2022/01/17 17:51:17;;;;;;;5.27;3.30;;;;;;;19.03;49.87;98442.94;10388609;28;20683;-22
2022/01/17 17:56:19;;;;;;;4.97;3.22;;;;;;;19.06;49.42;98437.94;10380112;28;20033;-22
2022/01/17 18:01:19;;;;;;;7.72;3.78;;;;;;;19.08;50.10;98466.78;10377067;28;20459;-22
2022/01/17 18:06:20;;;;;;;8.18;3.33;;;;;;;19.07;50.11;98442.19;10408822;28;20041;-22
2022/01/17 18:11:21;;;;;;;10.50;3.72;;;;;;;19.02;50.20;98431.09;10426474;28;20037;-23
2022/01/17 18:16:21;;;;;;;6.45;4.65;;;;;;;18.94;50.67;98432.56;10431538;28;20094;-23
2022/01/17 18:21:23;;;;;;;8.70;4.80;;;;;;;18.92;50.86;98431.69;10408492;28;20033;-22
2022/01/17 18:26:25;;;;;;;9.27;4.68;;;;;;;18.89;50.96;98413.81;10426636;28;20037;-23
2022/01/17 18:31:25;;;;;;;9.77;4.50;;;;;;;18.88;51.01;98410.44;10449472;28;20053;-22
2022/01/17 18:36:26;;;;;;;11.43;5.17;;;;;;;18.86;51.11;98404.47;10403473;28;20120;-23
2022/01/17 18:41:27;;;;;;;8.27;4.28;;;;;;;18.84;51.41;98411.16;10414590;28;20068;-22
2022/01/17 18:46:28;;;;;;;10.95;5.72;;;;;;;18.82;51.59;98406.91;10457047;28;20038;-23
2022/01/17 18:51:30;;;;;;;11.07;5.75;;;;;;;18.83;51.71;98408.59;10455374;28;20490;-23
2022/01/17 18:56:31;;;;;;;10.23;5.18;;;;;;;18.60;51.68;98366.56;10397080;28;20033;-23
2022/01/17 19:01:31;;;;;;;12.07;4.90;;;;;;;18.75;52.11;98387.25;10414092;28;20124;-23
2022/01/17 19:06:32;;;;;;;9.95;5.15;;;;;;;18.77;52.30;98403.38;10415334;28;20115;-23
2022/01/17 19:11:33;;;;;;;8.88;5.40;;;;;;;18.77;52.33;98390.69;10434305;28;20124;-23
2022/01/17 19:16:33;;;;;;;6.87;4.83;;;;;;;18.79;51.75;98410.19;10401141;28;20061;-23
2022/01/17 19:26:42;;;;;;;8.50;5.03;;;;;;;18.78;51.95;98405.06;10393998;28;20481;-22
2022/01/17 19:31:44;;;;;;;6.85;4.90;;;;;;;18.80;52.19;98424.59;10384356;28;20052;-23
2022/01/17 19:36:45;;;;;;;10.27;5.10;;;;;;;18.81;51.96;98423.78;10383960;28;20308;-23
2022/01/17 19:41:46;;;;;;;9.05;4.93;;;;;;;18.82;52.14;98427.19;10390823;28;20046;-23
2022/01/17 19:46:46;;;;;;;10.15;4.85;;;;;;;18.73;52.11;98426.94;10406954;28;20037;-23
2022/01/17 19:51:47;;;;;;;9.53;5.03;;;;;;;18.73;52.57;98426.94;10384672;28;20049;-23
2022/01/17 19:56:47;;;;;;;7.78;4.68;;;;;;;18.69;52.34;98440.38;10416850;28;20314;-23
2022/01/17 20:01:48;;;;;;;5.95;4.20;;;;;;;18.68;51.92;98453.88;10400443;28;20045;-23
2022/01/17 20:06:48;;;;;;;7.27;4.47;;;;;;;18.65;52.08;98459.72;10406514;28;20041;-23
2022/01/17 20:11:48;;;;;;;5.95;4.30;;;;;;;18.66;51.85;98460.59;10374495;28;20496;-23
2022/01/17 20:16:51;;;;;;;9.23;4.33;;;;;;;18.63;51.98;98463.03;10369940;28;20034;-23
2022/01/17 20:21:51;;;;;;;5.25;4.03;;;;;;;18.68;51.24;98453.88;10372770;28;20065;-23
2022/01/17 20:26:52;;;;;;;8.82;4.55;;;;;;;18.70;50.96;98449.69;10390254;28;20128;-23
2022/01/17 20:31:52;;;;;;;13.75;4.13;;;;;;;18.68;51.33;98467.41;10407238;28;20064;-23
2022/01/17 20:36:53;;;;;;;6.07;3.88;;;;;;;18.63;50.65;98481.66;10398085;28;20084;-22
2022/01/17 20:41:53;;;;;;;5.63;4.03;;;;;;;18.67;49.85;98482.59;10393962;28;20480;-23
2022/01/17 20:46:54;;;;;;;7.20;4.37;;;;;;;18.61;49.28;98469.75;10411389;28;20480;-23
2022/01/17 20:51:54;;;;;;;7.07;3.42;;;;;;;18.64;49.04;98483.38;10415381;28;20496;-23
2022/01/17 20:56:54;;;;;;;3.97;3.13;;;;;;;18.67;49.21;98469.91;10389898;28;20040;-23
2022/01/17 21:01:55;;;;;;;5.43;4.10;;;;;;;18.69;49.49;98486.91;10389223;28;20033;-23
2022/01/17 21:06:55;;;;;;;5.77;3.00;;;;;;;18.72;49.67;98481.03;10392332;28;20034;-23
2022/01/17 21:11:58;;;;;;;4.30;2.85;;;;;;;18.70;49.89;98459.84;10392355;28;20092;-23
2022/01/17 21:16:58;;;;;;;5.43;3.15;;;;;;;18.69;50.08;98465.75;10389412;28;20076;-23
2022/01/17 21:21:59;;;;;;;5.20;3.33;;;;;;;18.71;50.08;98464.09;10390246;28;20066;-23
2022/01/17 21:27:01;;;;;;;8.05;3.47;;;;;;;18.72;50.17;98463.28;10395907;28;20034;-23
2022/01/17 21:32:01;;;;;;;6.18;3.60;;;;;;;18.67;50.44;98468.22;10409535;28;20120;-23
2022/01/17 21:37:05;;;;;;;4.70;3.25;;;;;;;18.67;50.49;98472.47;10442286;28;20514;-23
2022/01/17 21:42:07;;;;;;;7.78;3.33;;;;;;;18.68;50.56;98469.94;10424542;28;20040;-23
2022/01/17 21:47:08;;;;;;;5.63;3.25;;;;;;;18.65;50.58;98466.47;10408649;28;20037;-23
2022/01/17 21:52:09;;;;;;;4.45;2.97;;;;;;;18.63;50.65;98471.50;10441983;28;20411;-23
2022/01/17 21:57:10;;;;;;;7.18;3.13;;;;;;;18.64;50.80;98472.34;10423641;28;20021;-23
2022/01/17 22:02:16;;;;;;;5.32;2.63;;;;;;;18.62;50.91;98474.00;10408481;28;20041;-23
2022/01/17 22:07:17;;;;;;;4.53;3.17;;;;;;;18.62;50.99;98458.78;10437215;28;20040;-23
2022/01/17 22:12:17;;;;;;;5.50;3.00;;;;;;;18.61;50.85;98444.38;10430750;28;20041;-23
2022/01/17 22:17:18;;;;;;;4.50;3.10;;;;;;;18.63;50.91;98450.34;10416808;28;20037;-23
2022/01/17 22:22:18;;;;;;;3.92;2.45;;;;;;;18.55;51.12;98432.41;10455862;28;20351;-23
2022/01/17 22:27:19;;;;;;;3.67;2.47;;;;;;;18.59;51.12;98443.50;10429099;28;20049;-23
2022/01/17 22:32:19;;;;;;;5.53;2.88;;;;;;;18.62;51.18;98458.78;10415995;28;20037;-23
2022/01/17 22:37:20;;;;;;;6.75;2.70;;;;;;;18.61;51.27;98467.22;10415730;28;20037;-23
2022/01/17 22:42:21;;;;;;;5.55;2.88;;;;;;;18.59;51.18;98458.72;10442654;28;20037;-23
2022/01/17 22:47:22;;;;;;;3.38;2.60;;;;;;;18.61;51.16;98452.00;10455520;28;20506;-23
2022/01/17 22:52:22;;;;;;;4.18;2.58;;;;;;;18.59;51.28;98444.31;10415401;28;20037;-23
2022/01/17 22:57:22;;;;;;;5.47;3.00;;;;;;;18.51;51.38;98439.88;10442047;28;20029;-23
2022/01/17 23:02:23;;;;;;;2.90;2.55;;;;;;;18.60;51.39;98443.50;10456816;28;20314;-23
2022/01/17 23:07:23;;;;;;;3.67;2.50;;;;;;;18.61;51.44;98436.75;10447768;28;20095;-23
2022/01/17 23:12:24;;;;;;;3.30;2.40;;;;;;;18.58;51.41;98434.16;10427675;28;20053;-23
2022/01/17 23:17:30;;;;;;;3.72;2.30;;;;;;;18.57;51.31;98428.22;10414850;28;20033;-23
2022/01/17 23:22:32;;;;;;;3.25;2.45;;;;;;;18.60;51.29;98429.97;10415243;28;20034;-23
2022/01/17 23:27:33;;;;;;;4.63;2.75;;;;;;;18.60;51.22;98425.75;10424678;28;20045;-23
2022/01/17 23:37:52;;;;;;;5.80;2.40;;;;;;;18.61;51.29;98421.53;10446403;28;20044;-23
2022/01/17 23:42:52;;;;;;;2.83;2.23;;;;;;;18.61;51.43;98422.41;10422589;28;20283;-23
2022/01/17 23:47:52;;;;;;;3.27;2.37;;;;;;;18.62;51.41;98423.25;10412521;28;20040;-21
2022/01/17 23:52:53;;;;;;;3.67;2.07;;;;;;;18.61;51.37;98421.53;10454454;28;20095;-21
2022/01/17 23:58:07;;;;;;;3.42;2.30;;;;;;;18.62;51.35;98410.56;10421531;28;20045;-21
